Time;durP1;ratioP1;P1;durP2;ratioP2;P2;SDS_P1;SDS_P2;PMS_P1;PMS_P2;Temp;Humidity;BMP_temperature;BMP_pressure;BME280_temperature;BME280_humidity;BME280_pressure;Samples;Min_cycle;Max_cycle;Signal;HPM_P1;HPM_P2
2024/02/22 00:00:43;;;;;;;3.60;1.23;;;6.20;99.90;;;;;;5032026;28;20174;-68
2024/02/22 00:03:09;;;;;;;2.78;1.63;;;6.20;99.90;;;;;;5024963;28;20044;-68
2024/02/22 00:05:34;;;;;;;2.70;1.45;;;6.20;99.90;;;;;;5025297;28;20076;-68
2024/02/22 00:08:00;;;;;;;3.08;1.38;;;6.20;99.90;;;;;;5025361;28;20029;-68
2024/02/22 00:10:30;;;;;;;4.63;1.55;;;6.20;99.90;;;;;;5029489;28;20117;-68
2024/02/22 00:12:58;;;;;;;3.33;1.40;;;6.20;99.90;;;;;;5027394;28;20250;-68
2024/02/22 00:15:24;;;;;;;1.60;1.25;;;6.20;99.90;;;;;;5034794;28;20155;-68
2024/02/22 00:17:50;;;;;;;2.00;1.20;;;6.20;99.90;;;;;;5020673;28;20029;-69
2024/02/22 00:20:17;;;;;;;3.35;1.25;;;6.20;99.90;;;;;;5029334;28;20033;-69
2024/02/22 00:22:44;;;;;;;2.45;1.23;;;6.20;99.90;;;;;;5030162;28;20068;-68
2024/02/22 00:25:09;;;;;;;3.03;1.40;;;6.20;99.90;;;;;;5032577;28;20109;-68
2024/02/22 00:27:36;;;;;;;3.38;1.25;;;6.20;99.90;;;;;;5032971;28;20456;-68
2024/02/22 00:30:02;;;;;;;3.08;1.60;;;6.30;99.90;;;;;;5048002;28;20104;-68
2024/02/22 00:32:28;;;;;;;3.35;1.63;;;6.30;99.90;;;;;;5030866;28;20144;-68
2024/02/22 00:34:53;;;;;;;3.08;1.63;;;6.30;99.90;;;;;;5034033;28;20200;-68
2024/02/22 00:37:19;;;;;;;1.92;1.02;;;6.30;99.90;;;;;;5030937;28;20137;-69
2024/02/22 00:39:46;;;;;;;1.85;1.15;;;6.30;99.90;;;;;;5030644;28;20124;-68
2024/02/22 00:42:11;;;;;;;1.60;1.10;;;6.30;99.90;;;;;;5032996;28;20048;-68
2024/02/22 00:44:37;;;;;;;3.13;1.80;;;6.30;99.90;;;;;;5043180;28;20033;-68
2024/02/22 00:47:02;;;;;;;3.03;1.50;;;6.30;99.90;;;;;;5031701;28;20475;-69
2024/02/22 00:49:28;;;;;;;4.97;1.50;;;6.30;99.90;;;;;;5029276;28;20033;-68
2024/02/22 00:51:53;;;;;;;2.25;1.60;;;6.30;99.90;;;;;;5032128;28;20108;-68
2024/02/22 00:54:19;;;;;;;2.65;1.20;;;6.30;99.90;;;;;;5029954;28;20172;-68
2024/02/22 00:56:44;;;;;;;4.35;1.80;;;6.30;99.90;;;;;;5027997;28;20439;-69
2024/02/22 00:59:10;;;;;;;2.70;1.40;;;6.30;99.90;;;;;;5031421;28;20146;-68
2024/02/22 01:01:35;;;;;;;5.85;1.88;;;6.30;99.90;;;;;;5036567;28;20056;-69
2024/02/22 01:04:01;;;;;;;2.50;1.70;;;6.30;99.90;;;;;;5029312;28;20029;-69
2024/02/22 01:06:26;;;;;;;3.05;1.73;;;6.30;99.90;;;;;;5026620;28;20136;-69
2024/02/22 01:08:52;;;;;;;2.17;1.20;;;6.30;99.90;;;;;;5030930;28;20379;-69
2024/02/22 01:11:17;;;;;;;4.60;1.60;;;6.30;99.90;;;;;;5026077;28;20108;-69
2024/02/22 01:13:43;;;;;;;2.03;1.25;;;6.30;99.90;;;;;;5031456;28;20060;-69
2024/02/22 01:16:08;;;;;;;2.67;1.10;;;6.30;99.90;;;;;;5028771;28;20045;-69
2024/02/22 01:18:34;;;;;;;5.88;1.45;;;6.30;99.90;;;;;;5026419;28;20049;-69
2024/02/22 01:21:00;;;;;;;3.33;1.38;;;6.30;99.90;;;;;;5028849;28;20400;-69
2024/02/22 01:23:25;;;;;;;2.50;1.45;;;6.40;99.90;;;;;;5029004;28;20033;-69
2024/02/22 01:25:51;;;;;;;1.70;1.10;;;6.40;99.90;;;;;;5028126;28;20055;-68
2024/02/22 01:28:16;;;;;;;1.70;1.10;;;6.30;99.90;;;;;;5026514;28;20037;-69
2024/02/22 01:30:42;;;;;;;2.90;1.70;;;6.40;99.90;;;;;;5027554;28;20041;-69
2024/02/22 01:33:08;;;;;;;1.90;1.30;;;6.40;99.90;;;;;;5028678;28;20045;-69
2024/02/22 01:35:35;;;;;;;3.40;1.27;;;6.40;99.90;;;;;;5027479;28;20095;-69
2024/02/22 01:38:00;;;;;;;2.80;1.30;;;6.40;99.90;;;;;;5030039;28;20063;-69
2024/02/22 01:40:25;;;;;;;3.63;1.20;;;6.40;99.90;;;;;;5026585;28;20344;-69
2024/02/22 01:42:51;;;;;;;5.65;1.60;;;6.40;99.90;;;;;;5032534;28;20033;-69
2024/02/22 01:45:16;;;;;;;2.53;1.58;;;6.40;99.90;;;;;;5029944;28;20477;-69
2024/02/22 01:47:42;;;;;;;3.00;1.20;;;6.40;99.90;;;;;;5029500;28;20120;-69
2024/02/22 01:50:09;;;;;;;2.67;1.20;;;6.40;99.90;;;;;;5029996;28;20049;-69
2024/02/22 01:52:34;;;;;;;2.05;1.23;;;6.40;99.90;;;;;;5032288;28;20192;-68
2024/02/22 01:55:01;;;;;;;2.83;1.48;;;6.40;99.90;;;;;;5027642;28;20129;-69
2024/02/22 01:57:26;;;;;;;1.58;1.35;;;6.40;99.90;;;;;;5027570;28;20032;-69
2024/02/22 01:59:53;;;;;;;3.58;1.38;;;6.40;99.90;;;;;;5025583;28;20045;-68
2024/02/22 02:02:19;;;;;;;2.03;1.38;;;6.40;99.90;;;;;;5029539;28;20468;-69
2024/02/22 02:04:44;;;;;;;3.13;1.33;;;6.40;99.90;;;;;;5029944;28;20044;-69
2024/02/22 02:07:10;;;;;;;1.90;1.30;;;6.40;99.90;;;;;;5030383;28;20049;-69
2024/02/22 02:09:35;;;;;;;4.28;2.00;;;6.40;99.90;;;;;;5026298;28;20037;-69
2024/02/22 02:12:01;;;;;;;2.03;1.17;;;6.40;99.90;;;;;;5026298;28;20049;-68
2024/02/22 02:14:26;;;;;;;2.08;1.10;;;6.40;99.90;;;;;;5027319;28;20103;-68
2024/02/22 02:16:52;;;;;;;3.70;1.63;;;6.50;99.90;;;;;;5028523;28;20447;-69
2024/02/22 02:19:24;;;;;;;2.67;1.55;;;6.50;99.90;;;;;;5029084;28;20150;-69
2024/02/22 02:22:07;;;;;;;3.83;1.48;;;6.50;99.90;;;;;;5027878;28;20452;-69
2024/02/22 02:24:41;;;;;;;2.55;1.45;;;6.50;99.90;;;;;;5025662;28;20091;-69
2024/02/22 02:27:06;;;;;;;2.88;1.35;;;6.40;99.90;;;;;;5031910;28;20328;-69
2024/02/22 02:29:32;;;;;;;3.95;1.25;;;6.50;99.90;;;;;;5028148;28;20033;-69
2024/02/22 02:31:57;;;;;;;2.20;1.38;;;6.50;99.90;;;;;;5026578;28;20152;-69
2024/02/22 02:34:22;;;;;;;2.00;1.30;;;6.50;99.90;;;;;;5028577;28;20059;-69
2024/02/22 02:36:48;;;;;;;2.03;1.13;;;6.50;99.90;;;;;;5033112;28;20091;-68
2024/02/22 02:39:13;;;;;;;2.25;1.30;;;6.50;99.90;;;;;;5028751;28;20063;-69
2024/02/22 02:41:39;;;;;;;3.20;1.55;;;6.50;99.90;;;;;;5024832;28;20109;-69
2024/02/22 02:44:04;;;;;;;2.13;1.20;;;6.50;99.90;;;;;;5029382;28;20415;-69
2024/02/22 02:46:30;;;;;;;2.83;1.15;;;6.50;99.90;;;;;;5026404;28;20036;-68
2024/02/22 02:48:56;;;;;;;1.60;1.30;;;6.50;99.90;;;;;;5026110;28;20025;-68
2024/02/22 02:51:21;;;;;;;2.63;1.40;;;6.50;99.90;;;;;;5028929;28;20117;-68
2024/02/22 02:53:47;;;;;;;2.58;1.42;;;6.50;99.90;;;;;;5028101;28;20045;-69
2024/02/22 02:56:12;;;;;;;2.25;1.40;;;6.50;99.90;;;;;;5026849;28;20387;-69
2024/02/22 02:58:38;;;;;;;2.95;1.55;;;6.50;99.90;;;;;;5032374;28;20029;-69
2024/02/22 03:01:07;;;;;;;1.75;1.33;;;6.50;99.90;;;;;;5027863;28;20737;-69
2024/02/22 03:03:33;;;;;;;1.70;1.17;;;6.50;99.90;;;;;;5026336;28;20395;-69
2024/02/22 03:05:59;;;;;;;2.65;1.17;;;6.50;99.90;;;;;;5031598;28;20059;-69
2024/02/22 03:08:24;;;;;;;2.10;1.55;;;6.50;99.90;;;;;;5029332;28;20471;-68
2024/02/22 03:10:49;;;;;;;1.83;1.30;;;6.50;99.90;;;;;;5031451;28;20124;-68
2024/02/22 03:13:15;;;;;;;2.17;1.25;;;6.60;99.90;;;;;;5026414;28;20057;-68
2024/02/22 03:15:40;;;;;;;3.58;1.75;;;6.60;99.90;;;;;;5029456;28;20456;-69
2024/02/22 03:18:07;;;;;;;0.95;0.88;;;6.50;99.90;;;;;;5027049;28;20120;-69
2024/02/22 03:20:33;;;;;;;2.03;1.25;;;6.60;99.90;;;;;;5028438;28;20060;-69
2024/02/22 03:22:58;;;;;;;2.15;1.30;;;6.60;99.90;;;;;;5026600;28;20475;-69
2024/02/22 03:25:25;;;;;;;1.88;1.40;;;6.60;99.90;;;;;;5028736;28;20041;-68
2024/02/22 03:27:50;;;;;;;1.45;1.08;;;6.60;99.90;;;;;;5028865;28;20119;-68
2024/02/22 03:30:16;;;;;;;1.90;1.35;;;6.60;99.90;;;;;;5030964;28;20612;-68
2024/02/22 03:32:42;;;;;;;1.50;1.23;;;6.60;99.90;;;;;;5031681;28;20091;-68
2024/02/22 03:35:09;;;;;;;2.45;1.40;;;6.60;99.90;;;;;;5022669;28;20029;-69
2024/02/22 03:37:35;;;;;;;1.70;1.25;;;6.60;99.90;;;;;;5023068;28;20021;-68
2024/02/22 03:40:01;;;;;;;1.85;1.20;;;6.60;99.90;;;;;;5027293;28;20338;-69
2024/02/22 03:42:28;;;;;;;2.92;1.23;;;6.60;99.90;;;;;;5025990;28;20344;-68
2024/02/22 03:44:54;;;;;;;1.77;0.90;;;6.60;99.90;;;;;;5021718;28;20021;-68
2024/02/22 03:47:19;;;;;;;2.20;1.33;;;6.60;99.90;;;;;;5023689;28;20037;-69
2024/02/22 03:49:45;;;;;;;1.30;0.93;;;6.60;99.90;;;;;;5021488;28;20029;-69
2024/02/22 03:52:11;;;;;;;1.88;0.98;;;6.60;99.90;;;;;;5024491;28;20441;-69
2024/02/22 03:54:37;;;;;;;1.75;0.90;;;6.70;99.90;;;;;;5023467;28;20025;-69
2024/02/22 03:57:03;;;;;;;2.58;1.33;;;6.60;99.90;;;;;;5023865;28;20032;-68
2024/02/22 03:59:29;;;;;;;1.63;0.90;;;6.70;99.90;;;;;;5028916;28;20464;-69
2024/02/22 04:01:55;;;;;;;2.03;1.25;;;6.70;99.90;;;;;;5025126;28;20073;-69
2024/02/22 04:04:20;;;;;;;2.78;1.00;;;6.70;99.90;;;;;;5023745;28;20448;-69
2024/02/22 04:06:45;;;;;;;2.63;1.45;;;6.70;99.90;;;;;;5027326;28;20128;-68
2024/02/22 04:09:11;;;;;;;1.40;0.90;;;6.70;99.90;;;;;;5029798;28;20057;-69
2024/02/22 04:11:36;;;;;;;1.60;1.10;;;6.70;99.90;;;;;;5028446;28;20045;-69
2024/02/22 04:14:02;;;;;;;1.30;1.08;;;6.70;99.90;;;;;;5025640;28;21022;-69
2024/02/22 04:16:27;;;;;;;1.52;1.00;;;6.70;99.90;;;;;;5030539;28;20057;-69
2024/02/22 04:18:53;;;;;;;1.92;1.30;;;6.70;99.90;;;;;;5028561;28;20187;-68
2024/02/22 04:21:18;;;;;;;2.20;1.20;;;6.70;99.90;;;;;;5026857;28;20120;-69
2024/02/22 04:23:44;;;;;;;2.10;1.30;;;6.70;99.90;;;;;;5026442;28;20085;-69
2024/02/22 04:26:10;;;;;;;2.42;1.40;;;6.70;99.90;;;;;;5026041;28;20025;-69
2024/02/22 04:28:35;;;;;;;2.47;1.10;;;6.70;99.90;;;;;;5030422;28;20085;-68
2024/02/22 04:31:04;;;;;;;1.48;0.88;;;6.80;99.90;;;;;;5027304;28;20025;-68
2024/02/22 04:33:29;;;;;;;2.45;1.15;;;6.80;99.90;;;;;;5026695;28;20073;-69
2024/02/22 04:35:55;;;;;;;2.88;1.58;;;6.80;99.90;;;;;;5024071;28;20099;-69
2024/02/22 04:38:22;;;;;;;1.65;0.98;;;6.80;99.90;;;;;;5028348;28;20033;-69
2024/02/22 04:40:47;;;;;;;1.63;1.00;;;6.80;99.90;;;;;;5029449;28;20037;-69
2024/02/22 04:43:13;;;;;;;2.28;1.13;;;6.80;99.90;;;;;;5027259;28;20044;-68
2024/02/22 04:45:39;;;;;;;3.15;1.23;;;6.80;99.90;;;;;;5032978;28;20040;-69
2024/02/22 04:48:06;;;;;;;0.93;0.82;;;6.80;99.90;;;;;;5026732;28;20405;-69
2024/02/22 04:50:32;;;;;;;1.45;1.08;;;6.80;99.90;;;;;;5028419;28;20406;-69
2024/02/22 04:52:58;;;;;;;1.00;0.68;;;6.80;99.90;;;;;;5024667;28;20123;-69
2024/02/22 04:55:24;;;;;;;1.23;1.02;;;6.80;99.90;;;;;;5024587;28;20503;-68
2024/02/22 04:57:50;;;;;;;1.67;1.02;;;6.80;99.90;;;;;;5025220;28;20120;-68
2024/02/22 05:00:16;;;;;;;1.90;1.10;;;6.80;99.90;;;;;;5031698;28;20125;-69
2024/02/22 05:02:41;;;;;;;1.20;0.95;;;6.90;99.90;;;;;;5027187;28;20112;-68
2024/02/22 05:05:07;;;;;;;1.90;1.08;;;6.90;99.90;;;;;;5025496;28;20412;-68
2024/02/22 05:07:33;;;;;;;1.20;0.90;;;6.90;99.90;;;;;;5028556;28;20037;-68
2024/02/22 05:10:00;;;;;;;1.95;1.25;;;6.90;99.90;;;;;;5031852;28;20031;-69
2024/02/22 05:12:26;;;;;;;2.47;1.10;;;6.90;99.90;;;;;;5023536;28;20037;-69
2024/02/22 05:14:51;;;;;;;1.80;1.02;;;6.90;99.90;;;;;;5025836;28;20509;-69
2024/02/22 05:17:17;;;;;;;1.27;0.98;;;6.90;99.90;;;;;;5026956;28;20034;-69
2024/02/22 05:19:42;;;;;;;1.45;1.05;;;6.90;99.90;;;;;;5025437;28;20034;-69
2024/02/22 05:22:08;;;;;;;1.17;1.08;;;6.90;99.90;;;;;;5022968;28;20041;-68
2024/02/22 05:24:34;;;;;;;1.95;1.17;;;6.90;99.90;;;;;;5023771;28;20041;-69
2024/02/22 05:27:00;;;;;;;1.75;1.08;;;6.90;99.90;;;;;;5026452;28;20192;-68
2024/02/22 05:29:25;;;;;;;1.92;0.80;;;7.00;99.90;;;;;;5026757;28;20044;-67
2024/02/22 05:31:57;;;;;;;0.73;0.70;;;7.00;99.90;;;;;;5028790;28;20053;-67
2024/02/22 05:34:25;;;;;;;1.17;0.82;;;7.00;99.90;;;;;;5025034;28;20029;-67
2024/02/22 05:36:50;;;;;;;1.60;1.00;;;7.00;99.90;;;;;;5031410;28;20025;-66
2024/02/22 05:39:16;;;;;;;1.55;0.98;;;7.00;99.90;;;;;;5027615;28;20037;-67
2024/02/22 05:41:42;;;;;;;1.45;0.90;;;7.00;99.90;;;;;;5027507;28;20344;-66
2024/02/22 05:44:07;;;;;;;1.45;0.95;;;7.00;99.90;;;;;;5029531;28;20431;-67
2024/02/22 05:46:33;;;;;;;1.20;0.85;;;7.00;99.90;;;;;;5028248;28;20040;-67
2024/02/22 05:48:58;;;;;;;1.52;0.80;;;7.00;99.90;;;;;;5027138;28;20402;-67
2024/02/22 05:51:24;;;;;;;1.00;0.90;;;7.00;99.90;;;;;;5026119;28;20153;-67
2024/02/22 05:53:51;;;;;;;1.25;1.00;;;7.00;99.90;;;;;;5031137;28;20033;-67
2024/02/22 05:56:17;;;;;;;1.60;0.90;;;7.10;99.90;;;;;;5026428;28;20122;-67
2024/02/22 05:58:42;;;;;;;2.42;1.48;;;7.10;99.90;;;;;;5029998;28;20478;-67
2024/02/22 06:01:08;;;;;;;1.63;1.10;;;7.00;99.90;;;;;;5027596;28;20044;-67
2024/02/22 06:03:33;;;;;;;1.45;1.13;;;7.10;99.90;;;;;;5028495;28;20271;-66
2024/02/22 06:05:58;;;;;;;1.65;0.95;;;7.10;99.90;;;;;;5028757;28;20105;-67
2024/02/22 06:08:24;;;;;;;1.40;0.93;;;7.00;99.90;;;;;;5028652;28;20101;-67
2024/02/22 06:10:51;;;;;;;1.35;0.95;;;7.10;99.90;;;;;;5024539;28;20072;-67
2024/02/22 06:13:17;;;;;;;1.55;1.30;;;7.10;99.90;;;;;;5027138;28;20052;-69
2024/02/22 06:15:43;;;;;;;1.65;1.00;;;7.10;99.90;;;;;;5031733;28;20037;-69
2024/02/22 06:18:08;;;;;;;2.22;1.40;;;7.10;99.90;;;;;;5031107;28;20037;-69
2024/02/22 06:20:34;;;;;;;1.88;1.13;;;7.10;99.90;;;;;;5026510;28;20037;-69
2024/02/22 06:23:00;;;;;;;1.83;1.05;;;7.10;99.90;;;;;;5023706;28;20423;-69
2024/02/22 06:25:27;;;;;;;2.05;1.13;;;7.10;99.90;;;;;;5028509;28;20045;-68
2024/02/22 06:27:53;;;;;;;2.40;1.20;;;7.10;99.90;;;;;;5028421;28;20043;-70
2024/02/22 06:30:18;;;;;;;2.55;1.13;;;7.20;99.90;;;;;;5022370;28;20037;-69
2024/02/22 06:32:44;;;;;;;2.83;1.23;;;7.10;99.90;;;;;;5024563;28;20073;-69
2024/02/22 06:35:10;;;;;;;1.17;1.05;;;7.20;99.90;;;;;;5020560;28;20048;-69
2024/02/22 06:37:35;;;;;;;1.88;1.13;;;7.20;99.90;;;;;;5029989;28;20542;-69
2024/02/22 06:40:02;;;;;;;2.28;1.13;;;7.20;99.90;;;;;;5030695;28;20033;-69
2024/02/22 06:42:27;;;;;;;2.75;1.42;;;7.20;99.90;;;;;;5032521;28;20112;-68
2024/02/22 06:44:53;;;;;;;3.13;1.50;;;7.20;99.90;;;;;;5030989;28;20117;-69
2024/02/22 06:47:18;;;;;;;2.83;1.60;;;7.20;99.90;;;;;;5030562;28;20174;-69
2024/02/22 06:49:44;;;;;;;2.90;1.35;;;7.20;99.90;;;;;;5026702;28;20048;-69
2024/02/22 06:52:09;;;;;;;3.13;1.45;;;7.30;99.90;;;;;;5030884;28;20159;-69
2024/02/22 06:54:35;;;;;;;2.67;1.58;;;7.30;99.90;;;;;;5028469;28;20104;-67
2024/02/22 06:57:01;;;;;;;3.63;1.45;;;7.30;99.90;;;;;;5027720;28;20064;-67
2024/02/22 06:59:27;;;;;;;3.85;1.70;;;7.30;99.90;;;;;;5028770;28;20481;-68
2024/02/22 07:01:53;;;;;;;2.90;1.50;;;7.30;99.90;;;;;;5026858;28;20049;-68
2024/02/22 07:04:18;;;;;;;4.20;2.03;;;7.30;99.90;;;;;;5025726;28;20030;-67
2024/02/22 07:06:43;;;;;;;4.05;2.13;;;7.30;99.90;;;;;;5025601;28;20194;-67
2024/02/22 07:09:09;;;;;;;3.05;1.63;;;7.40;99.90;;;;;;5029125;28;20037;-67
2024/02/22 07:11:35;;;;;;;4.03;2.00;;;7.40;99.90;;;;;;5034407;28;20076;-68
2024/02/22 07:14:00;;;;;;;3.10;1.75;;;7.40;99.90;;;;;;5031258;28;20189;-68
2024/02/22 07:16:27;;;;;;;3.67;1.73;;;7.40;99.90;;;;;;5026893;28;20064;-67
2024/02/22 07:18:53;;;;;;;3.47;1.92;;;7.40;99.90;;;;;;5027058;28;20037;-68
2024/02/22 07:21:19;;;;;;;3.53;1.60;;;7.50;99.90;;;;;;5026410;28;20137;-68
2024/02/22 07:23:46;;;;;;;4.25;1.98;;;7.50;99.90;;;;;;5025165;28;20436;-67
2024/02/22 07:26:12;;;;;;;3.67;1.85;;;7.50;99.90;;;;;;5025828;28;20022;-68
2024/02/22 07:28:39;;;;;;;3.67;1.77;;;7.50;99.90;;;;;;5023458;28;20501;-68
2024/02/22 07:31:04;;;;;;;3.13;1.77;;;7.50;99.90;;;;;;5026922;28;20030;-67
2024/02/22 07:33:31;;;;;;;3.58;1.83;;;7.50;99.90;;;;;;5020174;28;20057;-68
2024/02/22 07:35:57;;;;;;;3.47;1.77;;;7.50;99.90;;;;;;5022130;28;20460;-68
2024/02/22 07:38:23;;;;;;;3.03;1.38;;;7.50;99.90;;;;;;5027972;28;20112;-67
2024/02/22 07:40:49;;;;;;;3.42;1.45;;;7.50;99.90;;;;;;5022403;28;20128;-68
2024/02/22 07:43:15;;;;;;;4.22;1.98;;;7.50;99.90;;;;;;5023318;28;20132;-67
2024/02/22 07:45:44;;;;;;;4.13;1.80;;;7.50;99.90;;;;;;5023492;28;20052;-67
2024/02/22 07:48:09;;;;;;;3.13;1.67;;;7.60;99.90;;;;;;5025536;28;20132;-67
2024/02/22 07:50:35;;;;;;;3.83;1.70;;;7.60;99.90;;;;;;5023481;28;20030;-67
2024/02/22 07:53:01;;;;;;;3.05;1.77;;;7.50;99.90;;;;;;5028015;28;20117;-67
2024/02/22 07:55:26;;;;;;;3.28;1.67;;;7.60;99.90;;;;;;5034306;28;20033;-67
2024/02/22 07:57:53;;;;;;;4.95;2.30;;;7.60;99.90;;;;;;5027197;28;20569;-67
2024/02/22 08:00:18;;;;;;;5.07;2.35;;;7.60;99.90;;;;;;5028959;28;20049;-68
2024/02/22 08:02:44;;;;;;;5.00;2.28;;;7.60;99.90;;;;;;5028020;28;20565;-67
2024/02/22 08:05:11;;;;;;;4.10;2.25;;;7.60;99.90;;;;;;5028286;28;20364;-68
2024/02/22 08:07:37;;;;;;;5.50;2.78;;;7.70;99.90;;;;;;5028629;28;20211;-68
2024/02/22 08:10:03;;;;;;;4.10;2.00;;;7.70;99.90;;;;;;5026069;28;20430;-68
2024/02/22 08:12:29;;;;;;;3.47;1.63;;;7.80;99.90;;;;;;5029141;28;20045;-68
2024/02/22 08:14:55;;;;;;;6.28;2.85;;;7.80;99.90;;;;;;5027107;28;20143;-68
2024/02/22 08:17:20;;;;;;;5.13;2.38;;;7.80;99.90;;;;;;5024635;28;20018;-67
2024/02/22 08:19:47;;;;;;;5.03;2.33;;;7.90;99.90;;;;;;5025362;28;20131;-68
2024/02/22 08:22:13;;;;;;;5.40;2.50;;;7.90;99.90;;;;;;5027635;28;20037;-68
2024/02/22 08:24:38;;;;;;;5.30;2.40;;;7.90;99.90;;;;;;5023055;28;20064;-67
2024/02/22 08:27:04;;;;;;;5.85;2.50;;;7.90;99.90;;;;;;5027026;28;20388;-67
2024/02/22 08:29:29;;;;;;;4.55;2.20;;;7.90;99.90;;;;;;5025078;28;20033;-67
2024/02/22 08:31:55;;;;;;;4.68;2.47;;;7.90;99.90;;;;;;5031080;28;20040;-67
2024/02/22 08:34:20;;;;;;;4.60;2.20;;;8.00;99.90;;;;;;5028022;28;20038;-65
2024/02/22 08:36:46;;;;;;;5.30;2.55;;;8.10;99.90;;;;;;5024203;28;20059;-67
2024/02/22 08:39:12;;;;;;;3.97;1.70;;;8.10;99.90;;;;;;5028394;28;20450;-67
2024/02/22 08:41:38;;;;;;;4.22;2.28;;;8.10;99.90;;;;;;5026250;28;20121;-67
2024/02/22 08:44:05;;;;;;;6.00;2.53;;;8.10;99.90;;;;;;5024798;28;20168;-67
2024/02/22 08:46:31;;;;;;;4.85;2.08;;;8.10;99.90;;;;;;5021692;28;20030;-67
2024/02/22 08:48:56;;;;;;;5.75;3.05;;;8.20;99.90;;;;;;5026532;28;20031;-67
2024/02/22 08:51:22;;;;;;;5.57;2.78;;;8.20;99.90;;;;;;5024141;28;20108;-68
2024/02/22 08:53:47;;;;;;;5.20;2.30;;;8.20;99.90;;;;;;5025690;28;20416;-68
2024/02/22 08:56:13;;;;;;;5.55;2.60;;;8.20;99.90;;;;;;5023497;28;20179;-68
2024/02/22 08:58:38;;;;;;;4.35;2.35;;;8.30;99.90;;;;;;5030022;28;20112;-67
2024/02/22 09:01:05;;;;;;;5.80;2.95;;;8.30;99.90;;;;;;5034062;28;20360;-67
2024/02/22 09:03:31;;;;;;;15.02;6.35;;;8.30;99.90;;;;;;5032636;28;20064;-67
2024/02/22 09:05:56;;;;;;;26.27;10.20;;;8.40;99.90;;;;;;5026377;28;20090;-67
2024/02/22 09:08:23;;;;;;;6.88;3.53;;;8.40;99.90;;;;;;5036661;28;20029;-68
2024/02/22 09:10:49;;;;;;;18.58;6.35;;;8.40;99.90;;;;;;5031084;28;20379;-67
2024/02/22 09:13:15;;;;;;;11.35;5.28;;;8.40;99.90;;;;;;5031245;28;20041;-68
2024/02/22 09:15:41;;;;;;;8.88;3.47;;;8.40;99.90;;;;;;5030430;28;20494;-68
2024/02/22 09:18:06;;;;;;;10.82;5.00;;;8.40;99.90;;;;;;5031693;28;20025;-68
2024/02/22 09:20:31;;;;;;;16.58;6.10;;;8.50;99.90;;;;;;5026860;28;20038;-68
2024/02/22 09:22:57;;;;;;;10.27;3.60;;;8.50;99.90;;;;;;5027467;28;20060;-68
2024/02/22 09:25:22;;;;;;;7.03;2.95;;;8.50;99.90;;;;;;5026613;28;20033;-67
2024/02/22 09:27:48;;;;;;;27.15;10.32;;;8.60;99.90;;;;;;5029879;28;20084;-68
2024/02/22 09:30:14;;;;;;;17.20;6.30;;;8.70;99.90;;;;;;5029054;28;20184;-68
2024/02/22 09:32:39;;;;;;;8.10;2.75;;;8.70;99.90;;;;;;5031737;28;20052;-67
2024/02/22 09:35:06;;;;;;;7.10;3.55;;;8.70;99.90;;;;;;5024829;28;20463;-68
2024/02/22 09:37:32;;;;;;;5.72;2.35;;;8.70;99.90;;;;;;5027837;28;20379;-68
2024/02/22 09:39:57;;;;;;;6.95;2.97;;;8.70;99.90;;;;;;5042840;28;20032;-67
2024/02/22 09:42:26;;;;;;;7.45;3.05;;;8.70;99.90;;;;;;5027700;28;20058;-68
2024/02/22 09:44:56;;;;;;;9.57;4.00;;;8.80;99.90;;;;;;5032557;28;20119;-69
2024/02/22 09:47:22;;;;;;;7.28;3.35;;;8.80;99.90;;;;;;5028513;28;20091;-68
2024/02/22 09:49:47;;;;;;;9.50;4.28;;;8.80;99.90;;;;;;5034402;28;20037;-68
2024/02/22 09:52:14;;;;;;;10.18;4.90;;;8.90;99.90;;;;;;5032187;28;20111;-69
2024/02/22 09:54:42;;;;;;;6.13;2.83;;;9.00;99.90;;;;;;5026979;28;20416;-68
2024/02/22 09:57:08;;;;;;;6.07;2.92;;;9.00;99.90;;;;;;5032263;28;20099;-68
2024/02/22 09:59:33;;;;;;;5.93;2.63;;;9.10;99.90;;;;;;5033141;28;20448;-68
2024/02/22 10:02:05;;;;;;;6.50;2.80;;;9.10;99.90;;;;;;5027875;28;20026;-68
2024/02/22 10:04:31;;;;;;;5.68;2.75;;;9.10;99.90;;;;;;5030006;28;20407;-68
2024/02/22 10:07:01;;;;;;;4.30;1.98;;;9.10;99.90;;;;;;5036430;28;20029;-67
2024/02/22 10:09:27;;;;;;;6.97;3.22;;;9.10;99.90;;;;;;5039981;28;20447;-67
2024/02/22 10:11:53;;;;;;;5.78;2.80;;;9.10;99.90;;;;;;5028056;28;20052;-67
2024/02/22 10:14:19;;;;;;;4.70;2.72;;;9.00;99.90;;;;;;5025890;28;20091;-67
2024/02/22 10:16:45;;;;;;;6.13;2.90;;;9.00;99.90;;;;;;5029037;28;20077;-67
2024/02/22 10:19:12;;;;;;;5.38;2.28;;;9.00;99.90;;;;;;5027180;28;20107;-67
2024/02/22 10:21:38;;;;;;;6.93;3.53;;;8.90;99.90;;;;;;5022412;28;20033;-67
2024/02/22 10:24:04;;;;;;;6.43;2.83;;;9.00;99.90;;;;;;5026153;28;20095;-68
2024/02/22 10:26:29;;;;;;;5.72;2.58;;;9.00;99.90;;;;;;5031221;28;20052;-68
2024/02/22 10:29:06;;;;;;;5.60;2.38;;;9.00;99.90;;;;;;5028147;28;20175;-67
2024/02/22 10:31:33;;;;;;;5.90;2.65;;;9.00;99.90;;;;;;5028748;28;20025;-67
2024/02/22 10:34:02;;;;;;;6.82;3.30;;;9.00;99.90;;;;;;5024403;28;20138;-68
2024/02/22 10:36:28;;;;;;;7.53;3.25;;;9.10;99.90;;;;;;5026720;28;20040;-68
2024/02/22 10:38:54;;;;;;;6.15;2.97;;;9.10;99.90;;;;;;5035822;28;20144;-68
2024/02/22 10:41:22;;;;;;;6.20;3.22;;;9.20;99.90;;;;;;5024924;28;20084;-68
2024/02/22 10:43:50;;;;;;;6.45;3.25;;;9.20;99.90;;;;;;5025147;28;20080;-68
2024/02/22 10:46:17;;;;;;;9.88;3.55;;;9.40;99.90;;;;;;5027029;28;20029;-68
2024/02/22 10:48:49;;;;;;;5.88;3.00;;;9.50;99.90;;;;;;5027500;28;20031;-68
2024/02/22 10:51:22;;;;;;;5.55;2.78;;;9.60;99.90;;;;;;5020225;28;20029;-68
2024/02/22 10:53:53;;;;;;;6.93;3.22;;;9.60;99.90;;;;;;5026900;28;20068;-69
2024/02/22 10:56:30;;;;;;;6.03;3.20;;;9.70;99.90;;;;;;5025447;28;20033;-68
2024/02/22 10:58:59;;;;;;;6.07;3.10;;;9.90;99.90;;;;;;5019780;28;20076;-68
2024/02/22 11:01:26;;;;;;;8.38;3.45;;;9.90;99.90;;;;;;5026142;28;20428;-67
2024/02/22 11:03:52;;;;;;;7.50;3.63;;;9.90;99.90;;;;;;5026974;28;20040;-68
2024/02/22 11:06:21;;;;;;;6.78;2.75;;;9.90;99.90;;;;;;5022840;28;20076;-68
2024/02/22 11:08:51;;;;;;;7.47;3.35;;;9.90;99.90;;;;;;5024590;28;20462;-68
2024/02/22 11:11:27;;;;;;;6.43;3.60;;;9.90;99.90;;;;;;5026206;28;20025;-67
2024/02/22 11:14:00;;;;;;;6.97;3.45;;;9.80;99.80;;;;;;5033294;28;20033;-68
2024/02/22 11:16:34;;;;;;;6.80;2.97;;;9.80;99.80;;;;;;5025341;28;20416;-68
2024/02/22 11:19:12;;;;;;;6.63;3.53;;;9.80;99.60;;;;;;5028732;28;20443;-68
2024/02/22 11:21:41;;;;;;;6.90;3.28;;;9.80;99.90;;;;;;5025674;28;20029;-68
2024/02/22 11:24:07;;;;;;;8.10;3.75;;;9.90;99.80;;;;;;5022223;28;20036;-68
2024/02/22 11:26:34;;;;;;;6.65;2.70;;;9.90;99.50;;;;;;5024859;28;20404;-69
2024/02/22 11:29:00;;;;;;;8.77;4.28;;;10.00;99.40;;;;;;5027002;28;20047;-66
2024/02/22 11:31:25;;;;;;;15.20;6.75;;;10.00;99.50;;;;;;5026375;28;20037;-68
2024/02/22 11:33:56;;;;;;;14.30;6.13;;;10.00;98.90;;;;;;5022363;28;20121;-67
2024/02/22 11:36:22;;;;;;;10.85;5.95;;;10.10;99.00;;;;;;5023073;28;20030;-66
2024/02/22 11:38:48;;;;;;;13.60;5.78;;;10.10;98.50;;;;;;5028167;28;20043;-66
2024/02/22 11:41:15;;;;;;;6.82;4.07;;;10.20;98.50;;;;;;5025748;28;20400;-67
2024/02/22 11:43:43;;;;;;;7.78;4.20;;;10.10;97.80;;;;;;5025419;28;20432;-67
2024/02/22 11:46:11;;;;;;;13.63;5.82;;;10.20;97.90;;;;;;5025659;28;20135;-67
2024/02/22 11:48:37;;;;;;;7.75;4.30;;;10.70;98.50;;;;;;5022929;28;20464;-67
2024/02/22 11:51:04;;;;;;;6.82;4.20;;;11.10;97.30;;;;;;5027841;28;20026;-68
2024/02/22 11:53:29;;;;;;;6.22;3.42;;;11.30;96.70;;;;;;5032898;28;20424;-67
2024/02/22 11:55:55;;;;;;;6.13;3.17;;;11.20;95.60;;;;;;5027054;28;20041;-67
2024/02/22 11:58:21;;;;;;;6.65;3.17;;;11.10;96.30;;;;;;5027916;28;20109;-67
2024/02/22 12:00:46;;;;;;;6.13;3.30;;;11.00;96.60;;;;;;5026048;28;20150;-67
2024/02/22 12:03:13;;;;;;;7.60;3.28;;;10.80;96.30;;;;;;5026948;28;20112;-67
2024/02/22 12:05:39;;;;;;;6.20;3.20;;;10.70;96.50;;;;;;5021286;28;20042;-67
2024/02/22 12:08:05;;;;;;;5.40;2.95;;;10.60;97.00;;;;;;5027639;28;20105;-67
2024/02/22 12:10:31;;;;;;;6.75;3.25;;;10.40;97.40;;;;;;5026007;28;20045;-67
2024/02/22 12:12:56;;;;;;;7.07;2.97;;;10.30;97.60;;;;;;5029989;28;20098;-67
2024/02/22 12:15:22;;;;;;;8.45;3.83;;;10.20;97.80;;;;;;5031127;28;20094;-67
2024/02/22 12:17:50;;;;;;;8.85;3.63;;;10.40;97.90;;;;;;5021351;28;20121;-67
2024/02/22 12:20:19;;;;;;;9.18;4.28;;;10.50;97.60;;;;;;5029138;28;20383;-67
2024/02/22 12:22:45;;;;;;;7.82;4.28;;;10.60;97.00;;;;;;5022198;28;20129;-67
2024/02/22 12:25:11;;;;;;;10.95;4.07;;;10.50;96.70;;;;;;5022192;28;20112;-68
2024/02/22 12:27:36;;;;;;;5.47;3.05;;;10.40;97.10;;;;;;5019498;28;20540;-67
2024/02/22 12:30:02;;;;;;;6.93;3.42;;;10.40;97.20;;;;;;5025950;28;20056;-67
2024/02/22 12:32:28;;;;;;;7.13;3.95;;;10.80;97.10;;;;;;5032374;28;20041;-66
2024/02/22 12:34:56;;;;;;;8.95;4.63;;;11.00;94.90;;;;;;5029360;28;20095;-66
2024/02/22 12:37:21;;;;;;;14.50;6.93;;;11.00;95.50;;;;;;5026741;28;20036;-67
2024/02/22 12:39:48;;;;;;;20.42;8.65;;;11.00;95.90;;;;;;5031280;28;20033;-67
2024/02/22 12:42:13;;;;;;;10.57;5.47;;;10.90;95.60;;;;;;5026847;28;20468;-67
2024/02/22 12:44:39;;;;;;;12.23;5.95;;;10.70;95.00;;;;;;5033626;28;20196;-67
2024/02/22 12:47:05;;;;;;;10.43;5.80;;;10.90;95.80;;;;;;5028668;28;20049;-67
2024/02/22 12:49:32;;;;;;;7.90;4.10;;;11.00;95.40;;;;;;5029010;28;20040;-67